createdAt,value
2023-06-18T00:02:15.752Z,88739.41
2023-06-18T00:04:42.594Z,88741.81
2023-06-18T00:07:09.477Z,88747.56
2023-06-18T00:09:36.336Z,88746.50
2023-06-18T00:12:03.233Z,88742.28
2023-06-18T00:14:30.253Z,88742.09
2023-06-18T00:16:57.060Z,88743.53
2023-06-18T00:19:23.908Z,88744.53
2023-06-18T00:21:50.936Z,88745.31
2023-06-18T00:24:17.758Z,88732.84
2023-06-18T00:26:44.593Z,88745.34
2023-06-18T00:29:11.516Z,88741.78
2023-06-18T00:31:38.400Z,88747.56
2023-06-18T00:34:05.401Z,88755.69
2023-06-18T00:36:36.090Z,88747.03
2023-06-18T00:39:03.001Z,88757.38
2023-06-18T00:41:31.096Z,88750.00
2023-06-18T00:43:58.723Z,88745.91
2023-06-18T00:46:27.406Z,88760.41
2023-06-18T00:48:55.297Z,88755.00
2023-06-18T00:51:22.850Z,88752.72
2023-06-18T00:53:50.122Z,88747.47
2023-06-18T00:56:17.018Z,88754.91
2023-06-18T00:58:43.920Z,88754.22
2023-06-18T01:01:11.551Z,88761.41
2023-06-18T01:03:38.969Z,88763.63
2023-06-18T01:06:06.542Z,88769.41
2023-06-18T01:08:33.713Z,88766.56
2023-06-18T01:11:05.682Z,88762.66
2023-06-18T01:13:34.635Z,88768.22
2023-06-18T01:16:03.063Z,88769.59
2023-06-18T01:18:30.860Z,88774.69
2023-06-18T01:20:57.884Z,88775.59
2023-06-18T01:23:31.527Z,88776.19
2023-06-18T01:26:01.225Z,88773.06
2023-06-18T01:28:28.778Z,88771.88
2023-06-18T01:30:56.558Z,88775.94
2023-06-18T01:33:23.596Z,88779.00
2023-06-18T01:35:50.473Z,88787.84
2023-06-18T01:38:33.355Z,88784.78
2023-06-18T01:41:15.966Z,88793.56
2023-06-18T01:43:55.259Z,88784.31
2023-06-18T01:46:23.376Z,88785.22
2023-06-18T01:48:56.258Z,88781.63
2023-06-18T01:51:24.884Z,88787.59
2023-06-18T01:53:54.432Z,88786.03
2023-06-18T01:56:22.735Z,88789.09
2023-06-18T01:58:49.570Z,88791.47
2023-06-18T02:01:17.160Z,88796.91
2023-06-18T02:03:44.259Z,88800.13
2023-06-18T02:06:11.237Z,88806.44
2023-06-18T02:08:38.259Z,88806.41
2023-06-18T02:11:05.429Z,88806.88
2023-06-18T02:13:32.364Z,88817.28
2023-06-18T02:15:59.232Z,88816.56
2023-06-18T02:18:26.180Z,88828.56
2023-06-18T02:20:53.252Z,88835.88
2023-06-18T02:23:20.209Z,88837.25
2023-06-18T02:25:47.108Z,88833.72
2023-06-18T02:28:13.975Z,88838.13
2023-06-18T02:30:40.895Z,88838.16
2023-06-18T02:33:08.083Z,88844.66
2023-06-18T02:35:35.103Z,88847.16
2023-06-18T02:38:01.933Z,88841.97
2023-06-18T02:40:28.871Z,88851.63
2023-06-18T02:42:55.736Z,88850.78
2023-06-18T02:45:25.424Z,88846.72
2023-06-18T02:47:52.356Z,88849.22
2023-06-18T02:50:20.393Z,88850.50
2023-06-18T02:52:47.927Z,88848.03
2023-06-18T02:55:15.075Z,88846.47
2023-06-18T02:57:42.952Z,88845.75
2023-06-18T03:00:14.114Z,88844.47
2023-06-18T03:02:42.722Z,88857.69
2023-06-18T03:05:10.763Z,88852.19
2023-06-18T03:07:37.807Z,88851.06
2023-06-18T03:10:05.786Z,88843.47
2023-06-18T03:12:32.805Z,88855.06
2023-06-18T03:14:59.645Z,88854.44
2023-06-18T03:17:26.652Z,88858.56
2023-06-18T03:19:53.533Z,88854.31
2023-06-18T03:22:20.356Z,88853.50
2023-06-18T03:24:47.328Z,88852.97
2023-06-18T03:27:14.191Z,88849.72
2023-06-18T03:29:41.044Z,88846.03
2023-06-18T03:32:08.053Z,88846.63
2023-06-18T03:34:34.895Z,88849.63
2023-06-18T03:37:02.102Z,88856.72
2023-06-18T03:39:29.487Z,88866.47
2023-06-18T03:41:56.472Z,88855.50
2023-06-18T03:44:23.492Z,88855.56
2023-06-18T03:46:51.151Z,88861.25
2023-06-18T03:49:18.581Z,88863.22
2023-06-18T03:51:45.485Z,88863.75
2023-06-18T03:54:12.528Z,88867.88
2023-06-18T03:56:39.487Z,88866.31
2023-06-18T03:59:07.443Z,88871.59
2023-06-18T04:01:34.620Z,88876.53
2023-06-18T04:04:02.456Z,88873.53
2023-06-18T04:06:29.296Z,88871.44
2023-06-18T04:08:56.274Z,88878.34
2023-06-18T04:11:23.120Z,88879.94
2023-06-18T04:13:50.120Z,88880.28
2023-06-18T04:16:17.165Z,88881.19
2023-06-18T04:18:44.043Z,88888.06
2023-06-18T04:21:10.960Z,88878.88
2023-06-18T04:23:37.816Z,88879.78
2023-06-18T04:26:04.679Z,88882.28
2023-06-18T04:28:31.590Z,88879.66
2023-06-18T04:30:58.429Z,88884.78
2023-06-18T04:33:25.285Z,88896.78
2023-06-18T04:35:52.037Z,88894.47
2023-06-18T04:38:18.861Z,88894.66
2023-06-18T04:40:45.701Z,88896.94
2023-06-18T04:43:12.703Z,88898.25
2023-06-18T04:45:39.617Z,88898.78
2023-06-18T04:48:06.563Z,88901.44
2023-06-18T04:50:33.386Z,88910.44
2023-06-18T04:53:00.242Z,88917.78
2023-06-18T04:55:27.076Z,88916.03
2023-06-18T04:57:53.895Z,88913.00
2023-06-18T05:00:21.150Z,88915.34
2023-06-18T05:02:51.412Z,88916.03
2023-06-18T05:05:18.370Z,88918.97
2023-06-18T05:07:45.488Z,88922.91
2023-06-18T05:10:12.350Z,88927.31
2023-06-18T05:12:39.184Z,88922.59
2023-06-18T05:15:07.783Z,88914.19
2023-06-18T05:17:36.429Z,88915.25
2023-06-18T05:20:04.132Z,88917.88
2023-06-18T05:22:31.478Z,88919.03
2023-06-18T05:24:58.339Z,88916.31
2023-06-18T05:27:25.270Z,88916.28
2023-06-18T05:29:52.451Z,88928.59
2023-06-18T05:32:19.266Z,88927.53
2023-06-18T05:34:46.074Z,88922.66
2023-06-18T05:37:13.146Z,88933.75
2023-06-18T05:39:39.974Z,88933.13
2023-06-18T05:42:07.652Z,88928.63
2023-06-18T05:44:34.703Z,88920.28
2023-06-18T05:47:01.585Z,88930.44
2023-06-18T05:49:28.415Z,88924.84
2023-06-18T05:51:55.290Z,88921.31
2023-06-18T05:54:22.150Z,88932.00
2023-06-18T05:56:48.999Z,88926.50
2023-06-18T05:59:15.855Z,88933.28
2023-06-18T06:01:42.762Z,88932.03
2023-06-18T06:04:09.806Z,88935.25
2023-06-18T06:06:36.775Z,88927.97
2023-06-18T06:09:03.829Z,88937.66
2023-06-18T06:11:30.610Z,88937.22
2023-06-18T06:13:57.619Z,88939.19
2023-06-18T06:16:24.463Z,88940.03
2023-06-18T06:18:51.351Z,88943.38
2023-06-18T06:21:18.157Z,88938.44
2023-06-18T06:23:44.979Z,88943.88
2023-06-18T06:26:11.985Z,88945.16
2023-06-18T06:28:39.774Z,88940.09
2023-06-18T06:31:06.580Z,88943.34
2023-06-18T06:33:33.454Z,88945.16
2023-06-18T06:36:00.417Z,88942.22
2023-06-18T06:38:27.202Z,88941.34
2023-06-18T06:40:54.046Z,88945.81
2023-06-18T06:43:20.970Z,88948.84
2023-06-18T06:45:48.079Z,88940.06
2023-06-18T06:48:15.000Z,88947.97
2023-06-18T06:50:41.943Z,88958.31
2023-06-18T06:53:08.753Z,88951.19
2023-06-18T06:55:35.591Z,88956.31
2023-06-18T06:58:02.480Z,88944.84
2023-06-18T07:00:29.461Z,88946.59
2023-06-18T07:02:56.374Z,88943.09
2023-06-18T07:05:23.285Z,88946.84
2023-06-18T07:07:50.116Z,88950.84
2023-06-18T07:10:16.965Z,88953.31
2023-06-18T07:12:44.051Z,88949.06
2023-06-18T07:15:11.119Z,88952.25
2023-06-18T07:17:37.985Z,88947.78
2023-06-18T07:20:05.374Z,88953.63
2023-06-18T07:22:32.205Z,88956.41
2023-06-18T07:24:58.995Z,88958.66
2023-06-18T07:27:26.097Z,88960.56
2023-06-18T07:29:52.965Z,88963.13
2023-06-18T07:32:22.611Z,88958.19
2023-06-18T07:34:49.485Z,88963.22
2023-06-18T07:37:16.276Z,88966.19
2023-06-18T07:39:43.131Z,88973.19
2023-06-18T07:42:10.237Z,88967.09
2023-06-18T07:44:39.541Z,88971.75
2023-06-18T07:47:09.713Z,88970.69
2023-06-18T07:49:39.494Z,88977.19
2023-06-18T07:52:07.076Z,88976.97
2023-06-18T07:54:33.988Z,88981.09
2023-06-18T07:57:01.039Z,88977.78
2023-06-18T07:59:27.933Z,88973.25
2023-06-18T08:01:54.831Z,88978.84
2023-06-18T08:04:21.924Z,88985.16
2023-06-18T08:06:48.898Z,88984.19
2023-06-18T08:09:16.258Z,88982.88
2023-06-18T08:11:46.402Z,88978.47
2023-06-18T08:14:13.321Z,88977.66
2023-06-18T08:16:40.752Z,88969.59
2023-06-18T08:19:07.883Z,88985.56
2023-06-18T08:21:34.849Z,88982.97
2023-06-18T08:24:01.997Z,88979.00
2023-06-18T08:26:29.029Z,88977.75
2023-06-18T08:28:55.916Z,88971.81
2023-06-18T08:31:22.791Z,88974.91
2023-06-18T08:33:50.761Z,88969.41
2023-06-18T08:36:21.064Z,88966.88
2023-06-18T08:38:48.739Z,88975.72
2023-06-18T08:41:16.095Z,88966.94
2023-06-18T08:43:43.075Z,88977.59
2023-06-18T08:46:11.948Z,88973.28
2023-06-18T08:48:44.800Z,88972.94
2023-06-18T08:51:12.356Z,88974.31
2023-06-18T08:53:47.495Z,88979.19
2023-06-18T08:56:17.924Z,88975.41
2023-06-18T08:58:54.300Z,88977.63
2023-06-18T09:01:21.724Z,88985.09
2023-06-18T09:03:50.001Z,88982.25
2023-06-18T09:06:17.184Z,88969.25
2023-06-18T09:08:44.558Z,88973.19
2023-06-18T09:11:11.584Z,88976.19
2023-06-18T09:13:42.852Z,88977.72
2023-06-18T09:16:10.611Z,88976.53
2023-06-18T09:18:37.648Z,88984.03
2023-06-18T09:21:04.777Z,88977.63
2023-06-18T09:23:32.467Z,88975.66
2023-06-18T09:26:00.208Z,88980.38
2023-06-18T09:28:28.509Z,88983.88
2023-06-18T09:31:00.002Z,88980.66
2023-06-18T09:33:37.012Z,88972.59
2023-06-18T09:36:08.968Z,88972.16
2023-06-18T09:38:41.048Z,88967.25
2023-06-18T09:41:35.009Z,88960.25
2023-06-18T09:44:04.760Z,88959.88
2023-06-18T09:46:31.829Z,88974.78
2023-06-18T09:48:59.000Z,88965.69
2023-06-18T09:51:26.727Z,88975.19
2023-06-18T09:53:57.467Z,88961.50
2023-06-18T09:56:24.412Z,88959.63
2023-06-18T09:58:55.365Z,88961.78
2023-06-18T10:01:25.196Z,88964.56
2023-06-18T10:03:52.219Z,88964.94
2023-06-18T10:06:23.551Z,88961.53
2023-06-18T10:08:51.530Z,88968.59
2023-06-18T10:11:21.064Z,88961.03
2023-06-18T10:13:57.516Z,88968.84
2023-06-18T10:16:31.631Z,88958.13
2023-06-18T10:19:16.445Z,88961.16
2023-06-18T10:21:50.927Z,88963.94
2023-06-18T10:24:22.267Z,88964.00
2023-06-18T10:26:50.037Z,88962.06
2023-06-18T10:29:17.238Z,88967.19
2023-06-18T10:31:46.109Z,88958.41
2023-06-18T10:34:15.077Z,88955.94
2023-06-18T10:36:42.840Z,88960.41
2023-06-18T10:39:22.148Z,88963.31
2023-06-18T10:41:56.127Z,88959.75
2023-06-18T10:44:49.374Z,88977.88
2023-06-18T10:47:20.653Z,88969.25
2023-06-18T10:50:07.563Z,88997.34
2023-06-18T10:52:43.098Z,88992.78
2023-06-18T10:55:30.422Z,88990.13
2023-06-18T10:58:06.680Z,88998.09
2023-06-18T11:00:45.172Z,88997.94
2023-06-18T11:03:19.085Z,88995.38
2023-06-18T11:05:49.863Z,88998.50
2023-06-18T11:08:27.059Z,89015.97
2023-06-18T11:11:11.472Z,89011.53
2023-06-18T11:13:47.485Z,89009.94
2023-06-18T11:16:14.613Z,89017.19
2023-06-18T11:18:42.561Z,89016.16
2023-06-18T11:21:15.722Z,88992.06
2023-06-18T11:23:43.503Z,89001.97
2023-06-18T11:26:18.819Z,88994.66
2023-06-18T11:28:47.311Z,89005.13
2023-06-18T11:31:14.370Z,89005.31
2023-06-18T11:33:46.628Z,89010.13
2023-06-18T11:36:19.463Z,89012.59
2023-06-18T11:38:47.273Z,89008.91
2023-06-18T11:41:21.501Z,89013.03
2023-06-18T11:43:51.951Z,89005.34
2023-06-18T11:46:38.555Z,89010.06
2023-06-18T11:49:14.074Z,89013.00
2023-06-18T11:51:41.045Z,89006.28
2023-06-18T11:54:07.939Z,88995.00
2023-06-18T11:56:35.114Z,89007.28
2023-06-18T11:59:03.389Z,89007.38
2023-06-18T12:01:32.615Z,88997.25
2023-06-18T12:04:07.605Z,88996.16
2023-06-18T12:06:35.328Z,88989.19
2023-06-18T12:09:09.559Z,89000.00
2023-06-18T12:11:57.635Z,88998.22
2023-06-18T12:14:52.786Z,89005.84
2023-06-18T12:17:51.741Z,89001.56
2023-06-18T12:20:26.892Z,88992.41
2023-06-18T12:22:56.408Z,89002.56
2023-06-18T12:25:26.824Z,89000.91
2023-06-18T12:27:55.678Z,89012.78
2023-06-18T12:30:37.114Z,89010.22
2023-06-18T12:33:09.172Z,89006.63
2023-06-18T12:35:37.335Z,89018.03
2023-06-18T12:38:06.218Z,89013.00
2023-06-18T12:40:33.925Z,89009.75
2023-06-18T12:43:13.436Z,89003.28
2023-06-18T12:45:40.942Z,89001.19
2023-06-18T12:48:18.391Z,88996.25
2023-06-18T12:50:49.635Z,89008.31
2023-06-18T12:53:21.704Z,89025.56
2023-06-18T12:55:56.708Z,89012.38
2023-06-18T12:58:30.097Z,89009.00
2023-06-18T13:01:00.650Z,89002.63
2023-06-18T13:03:28.738Z,89002.25
2023-06-18T13:05:57.670Z,89006.63
2023-06-18T13:08:24.873Z,88989.88
2023-06-18T13:10:53.537Z,88993.28
2023-06-18T13:13:21.031Z,88984.25
2023-06-18T13:15:50.262Z,88976.66
2023-06-18T13:18:17.295Z,88980.94
2023-06-18T13:20:44.498Z,88961.81
2023-06-18T13:23:11.876Z,88962.19
2023-06-18T13:25:40.699Z,88979.47
2023-06-18T13:28:07.934Z,88979.03
2023-06-18T13:30:35.200Z,88972.41
2023-06-18T13:33:02.414Z,88967.31
2023-06-18T13:35:29.372Z,88975.41
2023-06-18T13:37:59.240Z,88968.69
2023-06-18T13:40:27.388Z,88967.28
2023-06-18T13:42:54.346Z,88975.56
2023-06-18T13:45:22.960Z,88973.25
2023-06-18T13:47:50.335Z,88974.16
2023-06-18T13:50:17.267Z,88983.31
2023-06-18T13:52:44.185Z,88981.75
2023-06-18T13:55:11.103Z,88977.25
2023-06-18T13:57:38.537Z,88982.44
2023-06-18T14:00:06.420Z,88979.78
2023-06-18T14:02:33.520Z,88984.31
2023-06-18T14:05:00.759Z,88988.75
2023-06-18T14:07:27.748Z,88993.50
2023-06-18T14:09:54.667Z,88984.38
2023-06-18T14:12:21.620Z,88982.41
2023-06-18T14:14:48.701Z,88979.34
2023-06-18T14:17:15.662Z,88985.31
2023-06-18T14:19:42.510Z,88975.97
2023-06-18T14:22:09.613Z,88983.94
2023-06-18T14:24:36.770Z,88978.13
2023-06-18T14:27:04.503Z,88979.66
2023-06-18T14:29:32.196Z,88978.69
2023-06-18T14:32:00.066Z,88979.56
2023-06-18T14:34:27.021Z,88976.16
2023-06-18T14:36:54.908Z,88971.13
2023-06-18T14:39:21.955Z,88981.72
2023-06-18T14:41:48.796Z,88980.16
2023-06-18T14:44:15.811Z,88974.47
2023-06-18T14:46:45.026Z,88978.34
2023-06-18T14:49:11.913Z,88984.75
2023-06-18T14:51:38.822Z,88986.59
2023-06-18T14:54:06.012Z,88981.00
2023-06-18T14:56:32.802Z,89000.00
2023-06-18T14:58:59.720Z,88993.84
2023-06-18T15:01:29.963Z,88982.53
2023-06-18T15:03:57.048Z,88993.06
2023-06-18T15:06:24.181Z,88993.84
2023-06-18T15:08:51.183Z,88989.97
2023-06-18T15:11:18.027Z,89000.59
2023-06-18T15:13:44.903Z,89003.16
2023-06-18T15:16:11.683Z,89005.69
2023-06-18T15:18:38.557Z,89019.72
2023-06-18T15:21:05.475Z,89013.53
2023-06-18T15:23:32.620Z,89012.50
2023-06-18T15:25:59.553Z,89006.34
2023-06-18T15:28:26.383Z,89012.31
2023-06-18T15:30:56.254Z,89008.69
2023-06-18T15:33:28.472Z,89015.94
2023-06-18T15:35:58.316Z,89016.56
2023-06-18T15:38:28.290Z,89014.97
2023-06-18T15:40:56.648Z,89016.75
2023-06-18T15:43:23.630Z,89009.72
2023-06-18T15:45:50.695Z,89016.84
2023-06-18T15:48:17.838Z,89011.91
2023-06-18T15:50:53.509Z,89005.69
2023-06-18T15:53:20.735Z,89013.47
2023-06-18T15:55:47.800Z,89011.50
2023-06-18T15:58:15.773Z,89014.88
2023-06-18T16:00:43.121Z,89006.91
2023-06-18T16:03:10.069Z,89010.06
2023-06-18T16:05:37.182Z,89013.84
2023-06-18T16:08:04.316Z,89009.31
2023-06-18T16:10:31.245Z,89009.72
2023-06-18T16:12:58.135Z,89008.84
2023-06-18T16:15:25.312Z,89006.91
2023-06-18T16:17:52.623Z,89012.72
2023-06-18T16:20:19.749Z,89017.06
2023-06-18T16:22:46.650Z,89019.41
2023-06-18T16:25:18.716Z,89019.03
2023-06-18T16:27:45.768Z,89029.31
2023-06-18T16:30:13.107Z,89024.09
2023-06-18T16:32:40.066Z,89036.22
2023-06-18T16:35:07.412Z,89031.16
2023-06-18T16:37:34.211Z,89034.03
2023-06-18T16:40:01.125Z,89035.47
2023-06-18T16:42:28.188Z,89031.53
2023-06-18T16:44:55.130Z,89034.34
2023-06-18T16:47:22.218Z,89034.50
2023-06-18T16:49:49.196Z,89036.69
2023-06-18T16:52:16.048Z,89035.28
2023-06-18T16:54:42.847Z,89036.72
2023-06-18T16:57:09.728Z,89029.19
2023-06-18T16:59:36.565Z,89028.28
2023-06-18T17:02:03.563Z,89032.66
2023-06-18T17:04:30.614Z,89033.94
2023-06-18T17:06:57.527Z,89025.28
2023-06-18T17:09:24.514Z,89033.03
2023-06-18T17:11:51.369Z,89028.91
2023-06-18T17:14:18.275Z,89026.38
2023-06-18T17:16:45.241Z,89026.38
2023-06-18T17:19:12.253Z,89027.31
2023-06-18T17:21:39.100Z,89029.28
2023-06-18T17:24:06.253Z,89034.69
2023-06-18T17:26:33.938Z,89037.56
2023-06-18T17:29:05.032Z,89044.41
2023-06-18T17:31:32.565Z,89046.94
2023-06-18T17:33:59.577Z,89046.56
2023-06-18T17:36:30.498Z,89054.88
2023-06-18T17:39:00.228Z,89050.91
2023-06-18T17:41:27.065Z,89053.06
2023-06-18T17:43:56.261Z,89051.22
2023-06-18T17:46:23.393Z,89062.69
2023-06-18T17:48:50.662Z,89068.41
2023-06-18T17:51:18.361Z,89064.91
2023-06-18T17:53:45.561Z,89062.88
2023-06-18T17:56:12.778Z,89060.56
2023-06-18T17:58:42.197Z,89065.97
2023-06-18T18:01:09.441Z,89065.75
2023-06-18T18:03:36.499Z,89057.53
2023-06-18T18:06:04.142Z,89064.72
2023-06-18T18:08:31.614Z,89080.53
2023-06-18T18:10:58.682Z,89080.16
2023-06-18T18:13:25.594Z,89071.88
2023-06-18T18:15:54.749Z,89079.75
2023-06-18T18:18:21.778Z,89085.13
2023-06-18T18:20:50.951Z,89092.00
2023-06-18T18:23:17.890Z,89092.88
2023-06-18T18:25:45.496Z,89094.06
2023-06-18T18:28:12.538Z,89087.75
2023-06-18T18:30:39.557Z,89096.16
2023-06-18T18:33:07.645Z,89093.63
2023-06-18T18:35:35.170Z,89101.72
2023-06-18T18:38:07.859Z,89103.00
2023-06-18T18:40:34.748Z,89101.56
2023-06-18T18:43:03.054Z,89098.50
2023-06-18T18:45:30.046Z,89100.06
2023-06-18T18:47:57.068Z,89112.13
2023-06-18T18:50:24.338Z,89113.88
2023-06-18T18:52:51.704Z,89117.63
2023-06-18T18:55:18.572Z,89117.63
2023-06-18T18:57:45.385Z,89114.72
2023-06-18T19:00:16.476Z,89117.22
2023-06-18T19:02:43.492Z,89113.56
2023-06-18T19:05:10.444Z,89120.94
2023-06-18T19:07:39.997Z,89120.78
2023-06-18T19:10:07.768Z,89119.69
2023-06-18T19:12:34.751Z,89122.28
2023-06-18T19:15:04.830Z,89114.53
2023-06-18T19:17:32.136Z,89107.25
2023-06-18T19:19:59.089Z,89117.44
2023-06-18T19:22:26.108Z,89123.31
2023-06-18T19:24:56.673Z,89126.19
2023-06-18T19:27:26.596Z,89119.47
2023-06-18T19:29:55.851Z,89121.94
2023-06-18T19:32:23.507Z,89125.91
2023-06-18T19:34:50.620Z,89129.13
2023-06-18T19:37:17.735Z,89128.47
2023-06-18T19:39:44.655Z,89128.41
2023-06-18T19:42:13.927Z,89130.22
2023-06-18T19:44:40.871Z,89124.09
2023-06-18T19:47:07.739Z,89129.91
2023-06-18T19:49:34.654Z,89130.22
2023-06-18T19:52:01.676Z,89127.28
2023-06-18T19:54:28.788Z,89129.34
2023-06-18T19:56:55.597Z,89130.78
2023-06-18T19:59:22.566Z,89128.47
2023-06-18T20:01:49.648Z,89133.28
2023-06-18T20:04:16.707Z,89133.22
2023-06-18T20:06:43.764Z,89122.19
2023-06-18T20:09:10.727Z,89135.19
2023-06-18T20:11:37.567Z,89139.06
2023-06-18T20:14:04.587Z,89140.44
2023-06-18T20:16:31.559Z,89133.66
2023-06-18T20:18:58.557Z,89129.28
2023-06-18T20:21:25.782Z,89132.13
2023-06-18T20:23:52.862Z,89130.53
2023-06-18T20:26:19.720Z,89126.59
2023-06-18T20:28:46.639Z,89128.28
2023-06-18T20:31:13.611Z,89123.56
2023-06-18T20:33:40.515Z,89129.53
2023-06-18T20:36:07.367Z,89124.38
2023-06-18T20:38:34.310Z,89133.66
2023-06-18T20:41:01.190Z,89132.44
2023-06-18T20:43:28.310Z,89141.00
2023-06-18T20:45:55.222Z,89137.69
2023-06-18T20:48:22.167Z,89131.59
2023-06-18T20:50:49.151Z,89130.94
2023-06-18T20:53:15.996Z,89124.38
2023-06-18T20:55:42.962Z,89128.88
2023-06-18T20:58:10.098Z,89127.63
2023-06-18T21:00:36.933Z,89133.91
2023-06-18T21:03:04.026Z,89130.59
2023-06-18T21:05:31.132Z,89129.97
2023-06-18T21:07:57.963Z,89129.69
2023-06-18T21:10:25.042Z,89117.94
2023-06-18T21:12:52.147Z,89126.47
2023-06-18T21:15:18.929Z,89123.13
2023-06-18T21:17:45.753Z,89115.25
2023-06-18T21:20:12.742Z,89112.22
2023-06-18T21:22:39.635Z,89110.75
2023-06-18T21:25:06.878Z,89118.09
2023-06-18T21:27:33.725Z,89118.09
2023-06-18T21:30:00.711Z,89106.19
2023-06-18T21:32:27.545Z,89112.31
2023-06-18T21:34:54.476Z,89105.41
2023-06-18T21:37:21.298Z,89100.84
2023-06-18T21:39:49.598Z,89101.47
2023-06-18T21:42:16.711Z,89101.56
2023-06-18T21:44:43.675Z,89092.44
2023-06-18T21:47:13.067Z,89103.03
2023-06-18T21:49:39.959Z,89099.50
2023-06-18T21:52:07.103Z,89096.16
2023-06-18T21:54:38.758Z,89106.03
2023-06-18T21:57:05.796Z,89092.88
2023-06-18T21:59:32.616Z,89092.44
2023-06-18T22:01:59.571Z,89095.38
2023-06-18T22:04:26.421Z,89092.69
2023-06-18T22:06:53.211Z,89090.41
2023-06-18T22:09:20.149Z,89083.50
2023-06-18T22:11:48.842Z,89088.03
2023-06-18T22:14:16.980Z,89085.34
2023-06-18T22:16:43.858Z,89088.38
2023-06-18T22:19:12.719Z,89081.13
2023-06-18T22:21:40.365Z,89091.44
2023-06-18T22:24:07.348Z,89078.28
2023-06-18T22:26:34.250Z,89078.72
2023-06-18T22:29:01.102Z,89076.75
2023-06-18T22:31:28.076Z,89078.19
2023-06-18T22:33:55.465Z,89078.72
2023-06-18T22:36:22.353Z,89081.22
2023-06-18T22:38:49.127Z,89090.13
2023-06-18T22:41:16.032Z,89083.41
2023-06-18T22:43:43.628Z,89095.63
2023-06-18T22:46:10.666Z,89086.75
2023-06-18T22:48:37.747Z,89091.50
2023-06-18T22:51:04.539Z,89079.81
2023-06-18T22:53:31.397Z,89089.25
2023-06-18T22:55:58.533Z,89094.00
2023-06-18T22:58:25.379Z,89098.13
2023-06-18T23:00:52.213Z,89090.25
2023-06-18T23:03:19.894Z,89087.13
2023-06-18T23:05:46.828Z,89083.53
2023-06-18T23:08:13.699Z,89084.47
2023-06-18T23:10:40.652Z,89088.72
2023-06-18T23:13:07.508Z,89087.38
2023-06-18T23:15:34.441Z,89083.44
2023-06-18T23:18:01.578Z,89091.00
2023-06-18T23:20:28.914Z,89079.72
2023-06-18T23:22:55.920Z,89091.72
2023-06-18T23:25:22.854Z,89088.63
2023-06-18T23:27:49.688Z,89094.19
2023-06-18T23:30:16.693Z,89088.50
2023-06-18T23:32:43.863Z,89095.13
2023-06-18T23:35:11.251Z,89080.16
2023-06-18T23:37:38.165Z,89080.44
2023-06-18T23:40:05.593Z,89087.59
2023-06-18T23:42:32.382Z,89087.59
2023-06-18T23:44:59.232Z,89084.56
2023-06-18T23:47:26.119Z,89094.72
2023-06-18T23:49:52.974Z,89077.13
2023-06-18T23:52:19.928Z,89086.66
2023-06-18T23:54:46.867Z,89088.00
2023-06-18T23:57:13.698Z,89084.09
2023-06-18T23:59:40.608Z,89075.38
